Zim Chicago — A8SI9 — position and weather

sailwx.info

Track history (hours):
 
Tides and Currents Weather Stations Pressure Air Temp Water Temp Dewpoint Dewpoint Depression Visibility Wind Speed Wind Dir Waves Ship Positions

Zim Chicago

Last reported at 2014-Aug-27 07:30 UTC. Time now 2014-Aug-29 05:32 UTC.
Position N 49°10' W 127°16'.

Length 334 m; draft 11.4 m.

Type: Cargo ship. MMSI: 636014223.

Date/timePositionNaut miles runAvg speedWind from/ knotsBaromVisibWave heightAir tempDewpointWater temp
2014-Aug-27 07:30N 49°10' W 127°16'1718.2
2014-Aug-27 06:33N 49°03' W 126°52'1818.1
2014-Aug-27 05:32N 48°56' W 126°26'1717.9
2014-Aug-27 04:33N 48°48' W 126°02'1818.1
2014-Aug-27 03:34N 48°41' W 125°37'1818.3
2014-Aug-27 02:34N 48°33' W 125°12'1918.7
2014-Aug-27 01:34N 48°31' W 124°44'1919.0
2014-Aug-27 00:33N 48°24' W 124°17'1818.4
2014-Aug-26 23:34N 48°17' W 123°52'1818.3
2014-Aug-26 22:33N 48°12' W 123°25'1111.4
2014-Aug-26 21:34N 48°12' W 123°08'1918.9
2014-Aug-26 20:33N 48°08' W 122°41'1919.5
2014-Aug-26 19:34N 47°50' W 122°27'1514.5
2014-Aug-26 18:33N 47°36' W 122°22'2 1.5
2014-Aug-26 17:31N 47°35' W 122°21'0 0.0
2014-Aug-26 16:31N 47°35' W 122°21'0 0.0
2014-Aug-26 15:31N 47°35' W 122°21'0 0.0
2014-Aug-26 14:31N 47°35' W 122°21'0 0.0
2014-Aug-26 13:31N 47°35' W 122°21'0 0.0
2014-Aug-26 12:31N 47°35' W 122°21'0 0.0
2014-Aug-26 11:31N 47°35' W 122°21'0 0.0
2014-Aug-26 10:31N 47°35' W 122°21'0 0.0
2014-Aug-26 09:31N 47°35' W 122°21'0 0.0
2014-Aug-26 08:32N 47°35' W 122°21'0 0.0
2014-Aug-26 07:31N 47°35' W 122°21'0 0.0
2014-Aug-26 06:31N 47°35' W 122°21'0 0.0
2014-Aug-26 05:31N 47°35' W 122°21'0 0.0
2014-Aug-26 04:31N 47°35' W 122°21'0 0.0
2014-Aug-26 03:31N 47°35' W 122°21'0 0.0
2014-Aug-26 02:32N 47°35' W 122°21'0 0.0
2014-Aug-26 01:31N 47°35' W 122°21'0 0.0
2014-Aug-26 00:31N 47°35' W 122°21'1 1.5
2014-Aug-25 23:33N 47°36' W 122°21'4 3.9
2014-Aug-25 22:33N 47°37' W 122°27'5 5.0
2014-Aug-25 21:33N 47°33' W 122°32'0 0.1
2014-Aug-25 20:33N 47°33' W 122°31'0 0.0
2014-Aug-25 19:33N 47°33' W 122°31'0 0.0
2014-Aug-25 18:33N 47°33' W 122°31'0 0.0
2014-Aug-25 17:33N 47°33' W 122°31'0 0.0
2014-Aug-25 16:33N 47°33' W 122°31'0 0.0
2014-Aug-25 15:33N 47°33' W 122°31'0 0.0
2014-Aug-25 14:33N 47°33' W 122°31'0 0.0
2014-Aug-25 13:33N 47°33' W 122°31'0 0.0
2014-Aug-25 12:33N 47°33' W 122°31'0 0.1
2014-Aug-25 11:33N 47°33' W 122°32'0 0.0
2014-Aug-25 10:34N 47°33' W 122°31'0 0.0
2014-Aug-25 09:34N 47°33' W 122°31'0 0.0
2014-Aug-25 08:34N 47°33' W 122°31'0 0.0
2014-Aug-25 07:34N 47°33' W 122°31'0 0.0
2014-Aug-25 06:34N 47°33' W 122°31'0 0.1
2014-Aug-25 05:33N 47°33' W 122°31'0 0.0
2014-Aug-25 04:33N 47°33' W 122°31'0 0.0
2014-Aug-25 03:34N 47°33' W 122°31'0 0.1
2014-Aug-25 02:34N 47°33' W 122°31'0 0.0
2014-Aug-25 01:34N 47°33' W 122°32'0 0.1
2014-Aug-25 00:33N 47°33' W 122°32'0 0.0
2014-Aug-24 23:34N 47°33' W 122°32'0 0.0
2014-Aug-24 22:34N 47°33' W 122°32'0 0.0
2014-Aug-24 21:34N 47°33' W 122°32'0 0.1
2014-Aug-24 20:34N 47°33' W 122°31'0 0.0
2014-Aug-24 19:34N 47°33' W 122°31'0 0.1
2014-Aug-24 18:34N 47°33' W 122°31'2 2.0
2014-Aug-24 17:34N 47°34' W 122°28'1211.8
2014-Aug-24 16:34N 47°23' W 122°21'7 6.9
2014-Aug-24 15:33N 47°17' W 122°25'1 1.2
2014-Aug-24 14:32N 47°16' W 122°23'0 0.0
2014-Aug-24 13:32N 47°16' W 122°23'0 0.0
2014-Aug-24 12:32N 47°16' W 122°23'0 0.0
2014-Aug-24 11:29N 47°16' W 122°23'0 0.0
2014-Aug-24 10:32N 47°16' W 122°23'0 0.0
2014-Aug-24 09:32N 47°16' W 122°23'0 0.0
2014-Aug-24 08:32N 47°16' W 122°23'0 0.0
2014-Aug-24 07:32N 47°16' W 122°23'0 0.0
2014-Aug-24 06:32N 47°16' W 122°23'0 0.0
2014-Aug-24 05:32N 47°16' W 122°24'0 0.0
2014-Aug-24 04:32N 47°16' W 122°23'0 0.0
2014-Aug-24 03:32N 47°16' W 122°23'0 0.0
2014-Aug-24 02:32N 47°16' W 122°23'0 0.0
2014-Aug-24 01:32N 47°16' W 122°23'0 0.0
2014-Aug-24 00:32N 47°16' W 122°23'0 0.0
2014-Aug-23 23:32N 47°16' W 122°23'0 0.0
2014-Aug-23 22:32N 47°16' W 122°23'0 0.0
2014-Aug-23 21:32N 47°16' W 122°23'0 0.0
2014-Aug-23 20:29N 47°16' W 122°23'0 0.0
2014-Aug-23 19:29N 47°16' W 122°23'5 0.3
2014-Aug-23 03:31N 47°20' W 122°28'0 0.1
2014-Aug-23 02:31N 47°20' W 122°28'1 0.6
2014-Aug-23 01:33N 47°20' W 122°28'1110.8
2014-Aug-23 00:33N 47°31' W 122°26'1616.4
2014-Aug-22 23:34N 47°47' W 122°27'1919.2
2014-Aug-22 22:34N 48°04' W 122°39'2020.2
2014-Aug-22 21:33N 48°12' W 123°07'1313.3
2014-Aug-22 20:34N 48°11' W 123°27'6 6.1
2014-Aug-22 19:34N 48°17' W 123°29'7 7.2
2014-Aug-22 18:34N 48°23' W 123°23'1212.3
2014-Aug-22 17:34N 48°34' W 123°13'1817.9
2014-Aug-22 16:33N 48°50' W 123°02'1211.7
2014-Aug-22 15:33N 49°01' W 123°09'0 0.4
2014-Aug-22 14:33N 49°01' W 123°09'0 0.0
2014-Aug-22 13:33N 49°01' W 123°09'0 0.0
2014-Aug-22 12:33N 49°01' W 123°09'0 0.0
2014-Aug-22 11:33N 49°01' W 123°09'0 0.0
2014-Aug-22 10:33N 49°01' W 123°09'0 0.0
2014-Aug-22 09:33N 49°01' W 123°09'0 0.0
2014-Aug-22 08:33N 49°01' W 123°09'0 0.0
2014-Aug-22 07:33N 49°01' W 123°09'0 0.0
2014-Aug-22 06:33N 49°01' W 123°09'0 0.0
2014-Aug-22 05:33N 49°01' W 123°09'0 0.0
2014-Aug-22 04:33N 49°01' W 123°09'0 0.0
2014-Aug-22 03:33N 49°01' W 123°09'0 0.0
2014-Aug-22 02:33N 49°01' W 123°09'0 0.0
2014-Aug-22 01:33N 49°01' W 123°09'0 0.0
2014-Aug-22 00:33N 49°01' W 123°09'0 0.0
2014-Aug-21 23:33N 49°01' W 123°09'0 0.0
2014-Aug-21 22:33N 49°01' W 123°09'0 0.0
2014-Aug-21 21:33N 49°01' W 123°09'0 0.0
2014-Aug-21 20:33N 49°01' W 123°09'0 0.0
2014-Aug-21 19:33N 49°01' W 123°09'0 0.0
2014-Aug-21 18:33N 49°01' W 123°09'0 0.0
2014-Aug-21 17:33N 49°01' W 123°09'0 0.0
2014-Aug-21 16:34N 49°01' W 123°09'0 0.0
2014-Aug-21 15:34N 49°01' W 123°09'0 0.0
2014-Aug-21 14:33N 49°01' W 123°09'0 0.0
2014-Aug-21 13:33N 49°01' W 123°09'0 0.0
2014-Aug-21 12:33N 49°01' W 123°09'0 0.0
2014-Aug-21 11:33N 49°01' W 123°09'0 0.0
2014-Aug-21 10:33N 49°01' W 123°09'0 0.0
2014-Aug-21 09:33N 49°01' W 123°09'0 0.0
2014-Aug-21 08:33N 49°01' W 123°09'0 0.0
2014-Aug-21 07:33N 49°01' W 123°09'0 0.0
2014-Aug-21 06:33N 49°01' W 123°09'0 0.0
2014-Aug-21 05:33N 49°01' W 123°09'0 0.0
2014-Aug-21 04:33N 49°01' W 123°09'0 0.0
2014-Aug-21 03:33N 49°01' W 123°09'0 0.0
2014-Aug-21 02:33N 49°01' W 123°09'0 0.0
2014-Aug-21 01:33N 49°01' W 123°09'0 0.0
2014-Aug-21 00:33N 49°01' W 123°09'0 0.0
2014-Aug-20 23:33N 49°01' W 123°09'0 0.0
2014-Aug-20 22:33N 49°01' W 123°09'0 0.0
2014-Aug-20 21:33N 49°01' W 123°09'0 0.0
2014-Aug-20 20:33N 49°01' W 123°09'0 0.0
2014-Aug-20 19:33N 49°01' W 123°09'0 0.0
2014-Aug-20 18:33N 49°01' W 123°09'0 0.0
2014-Aug-20 17:33N 49°01' W 123°09'0 0.0
2014-Aug-20 16:33N 49°01' W 123°09'0 0.0
2014-Aug-20 15:33N 49°01' W 123°09'0 0.0
2014-Aug-20 14:33N 49°01' W 123°09'0 0.0
2014-Aug-20 13:33N 49°01' W 123°09'0 0.0
2014-Aug-20 12:33N 49°01' W 123°09'0 0.0
2014-Aug-20 11:33N 49°01' W 123°09'0 0.0
2014-Aug-20 10:33N 49°01' W 123°09'0 0.0
2014-Aug-20 09:33N 49°01' W 123°09'0 0.0
2014-Aug-20 08:33N 49°01' W 123°09'0 0.0
2014-Aug-20 07:33N 49°01' W 123°09'0 0.0
2014-Aug-20 06:33N 49°01' W 123°09'0 0.0
2014-Aug-20 05:33N 49°01' W 123°09'0 0.0
2014-Aug-20 04:34N 49°01' W 123°09'0 0.0
2014-Aug-20 03:33N 49°01' W 123°09'0 0.0
2014-Aug-20 02:33N 49°01' W 123°09'0 0.0
2014-Aug-20 01:33N 49°01' W 123°09'0 0.0
2014-Aug-20 00:33N 49°01' W 123°09'0 0.0
2014-Aug-19 23:33N 49°01' W 123°09'0 0.0
2014-Aug-19 22:33N 49°01' W 123°09'0 0.0
2014-Aug-19 21:33N 49°01' W 123°09'0 0.0
2014-Aug-19 20:33N 49°01' W 123°09'0 0.0
2014-Aug-19 19:33N 49°01' W 123°09'0 0.0
2014-Aug-19 18:33N 49°01' W 123°09'0 0.0
2014-Aug-19 17:33N 49°01' W 123°09'0 0.0
2014-Aug-19 16:33N 49°01' W 123°09'0 0.0
2014-Aug-19 15:33N 49°01' W 123°09'0 0.0
2014-Aug-19 14:33N 49°01' W 123°09'0 0.0
2014-Aug-19 13:33N 49°01' W 123°09'0 0.0
2014-Aug-19 12:33N 49°01' W 123°09'0 0.0
2014-Aug-19 11:33N 49°01' W 123°09'0 0.0
2014-Aug-19 10:33N 49°01' W 123°09'0 0.0
2014-Aug-19 09:33N 49°01' W 123°09'0 0.0
2014-Aug-19 08:33N 49°01' W 123°09'0 0.0
2014-Aug-19 07:33N 49°01' W 123°09'0 0.0
2014-Aug-19 06:33N 49°01' W 123°09'0 0.0
2014-Aug-19 05:33N 49°01' W 123°09'0 0.0
2014-Aug-19 04:33N 49°01' W 123°09'0 0.0
2014-Aug-19 03:33N 49°01' W 123°09'0 0.0
2014-Aug-19 02:33N 49°01' W 123°09'0 0.0
2014-Aug-19 01:33N 49°01' W 123°09'0 0.0
2014-Aug-19 00:33N 49°01' W 123°09'0 0.0
2014-Aug-18 23:33N 49°01' W 123°09'0 0.0
2014-Aug-18 22:33N 49°01' W 123°09'0 0.0
2014-Aug-18 21:33N 49°01' W 123°09'0 0.0
2014-Aug-18 20:33N 49°01' W 123°09'0 0.0
2014-Aug-18 19:33N 49°01' W 123°09'0 0.0
2014-Aug-18 18:33N 49°01' W 123°09'0 0.0
2014-Aug-18 17:33N 49°01' W 123°09'0 0.0
2014-Aug-18 16:33N 49°01' W 123°09'0 0.0
2014-Aug-18 15:33N 49°01' W 123°09'0 0.0
2014-Aug-18 14:33N 49°01' W 123°09'0 0.0
2014-Aug-18 13:33N 49°01' W 123°09'0 0.0
2014-Aug-18 12:33N 49°01' W 123°09'0 0.0
2014-Aug-18 11:33N 49°01' W 123°09'0 0.0
2014-Aug-18 10:33N 49°01' W 123°09'0 0.0
2014-Aug-18 09:33N 49°01' W 123°09'0 0.0
2014-Aug-18 08:33N 49°01' W 123°09'0 0.0
2014-Aug-18 07:33N 49°01' W 123°09'0 0.0
2014-Aug-18 06:33N 49°01' W 123°09'0 0.0
2014-Aug-18 05:33N 49°01' W 123°09'0 0.0
2014-Aug-18 04:33N 49°01' W 123°09'0 0.0
2014-Aug-18 03:33N 49°01' W 123°09'0 0.0
2014-Aug-18 02:33N 49°01' W 123°09'0 0.0
2014-Aug-18 01:33N 49°01' W 123°09'0 0.0
2014-Aug-18 00:33N 49°01' W 123°09'0 0.0
2014-Aug-17 18:33N 49°01' W 123°09'0 0.0
2014-Aug-17 17:33N 49°01' W 123°09'0 0.0
2014-Aug-17 16:33N 49°01' W 123°09'0 0.0
2014-Aug-17 15:33N 49°01' W 123°09'0 0.0
2014-Aug-17 14:33N 49°01' W 123°09'0 0.0
2014-Aug-17 13:33N 49°01' W 123°09'5 4.7
2014-Aug-17 12:33N 48°57' W 123°08'1515.0
2014-Aug-17 11:33N 48°42' W 123°14'1818.2
2014-Aug-17 10:34N 48°24' W 123°12'1313.1
2014-Aug-17 09:33N 48°15' W 123°27'1413.9
2014-Aug-17 08:33N 48°13' W 123°47'1414.1
2014-Aug-17 07:34N 48°17' W 124°08'  
Track history (hours):
 
Tides and Currents Weather Stations Pressure Air Temp Water Temp Dewpoint Dewpoint Depression Visibility Wind Speed Wind Dir Waves Ship Positions

Zim Chicago

Last reported at 2014-Aug-27 07:30 UTC. Time now 2014-Aug-29 05:32 UTC.
Position N 49°10' W 127°16'.

Length 334 m; draft 11.4 m.

Type: Cargo ship. MMSI: 636014223.

Date/timePositionNaut miles runAvg speedWind from/ knotsBaromVisibWave heightAir tempDewpointWater temp
2014-Aug-27 07:30N 49°10' W 127°16'1718.2
2014-Aug-27 06:33N 49°03' W 126°52'1818.1
2014-Aug-27 05:32N 48°56' W 126°26'1717.9
2014-Aug-27 04:33N 48°48' W 126°02'1818.1
2014-Aug-27 03:34N 48°41' W 125°37'1818.3
2014-Aug-27 02:34N 48°33' W 125°12'1918.7
2014-Aug-27 01:34N 48°31' W 124°44'1919.0
2014-Aug-27 00:33N 48°24' W 124°17'1818.4
2014-Aug-26 23:34N 48°17' W 123°52'1818.3
2014-Aug-26 22:33N 48°12' W 123°25'1111.4
2014-Aug-26 21:34N 48°12' W 123°08'1918.9
2014-Aug-26 20:33N 48°08' W 122°41'1919.5
2014-Aug-26 19:34N 47°50' W 122°27'1514.5
2014-Aug-26 18:33N 47°36' W 122°22'2 1.5
2014-Aug-26 17:31N 47°35' W 122°21'0 0.0
2014-Aug-26 16:31N 47°35' W 122°21'0 0.0
2014-Aug-26 15:31N 47°35' W 122°21'0 0.0
2014-Aug-26 14:31N 47°35' W 122°21'0 0.0
2014-Aug-26 13:31N 47°35' W 122°21'0 0.0
2014-Aug-26 12:31N 47°35' W 122°21'0 0.0
2014-Aug-26 11:31N 47°35' W 122°21'0 0.0
2014-Aug-26 10:31N 47°35' W 122°21'0 0.0
2014-Aug-26 09:31N 47°35' W 122°21'0 0.0
2014-Aug-26 08:32N 47°35' W 122°21'0 0.0
2014-Aug-26 07:31N 47°35' W 122°21'0 0.0
2014-Aug-26 06:31N 47°35' W 122°21'0 0.0
2014-Aug-26 05:31N 47°35' W 122°21'0 0.0
2014-Aug-26 04:31N 47°35' W 122°21'0 0.0
2014-Aug-26 03:31N 47°35' W 122°21'0 0.0
2014-Aug-26 02:32N 47°35' W 122°21'0 0.0
2014-Aug-26 01:31N 47°35' W 122°21'0 0.0
2014-Aug-26 00:31N 47°35' W 122°21'1 1.5
2014-Aug-25 23:33N 47°36' W 122°21'4 3.9
2014-Aug-25 22:33N 47°37' W 122°27'5 5.0
2014-Aug-25 21:33N 47°33' W 122°32'0 0.1
2014-Aug-25 20:33N 47°33' W 122°31'0 0.0
2014-Aug-25 19:33N 47°33' W 122°31'0 0.0
2014-Aug-25 18:33N 47°33' W 122°31'0 0.0
2014-Aug-25 17:33N 47°33' W 122°31'0 0.0
2014-Aug-25 16:33N 47°33' W 122°31'0 0.0
2014-Aug-25 15:33N 47°33' W 122°31'0 0.0
2014-Aug-25 14:33N 47°33' W 122°31'0 0.0
2014-Aug-25 13:33N 47°33' W 122°31'0 0.0
2014-Aug-25 12:33N 47°33' W 122°31'0 0.1
2014-Aug-25 11:33N 47°33' W 122°32'0 0.0
2014-Aug-25 10:34N 47°33' W 122°31'0 0.0
2014-Aug-25 09:34N 47°33' W 122°31'0 0.0
2014-Aug-25 08:34N 47°33' W 122°31'0 0.0
2014-Aug-25 07:34N 47°33' W 122°31'0 0.0
2014-Aug-25 06:34N 47°33' W 122°31'0 0.1
2014-Aug-25 05:33N 47°33' W 122°31'0 0.0
2014-Aug-25 04:33N 47°33' W 122°31'0 0.0
2014-Aug-25 03:34N 47°33' W 122°31'0 0.1
2014-Aug-25 02:34N 47°33' W 122°31'0 0.0
2014-Aug-25 01:34N 47°33' W 122°32'0 0.1
2014-Aug-25 00:33N 47°33' W 122°32'0 0.0
2014-Aug-24 23:34N 47°33' W 122°32'0 0.0
2014-Aug-24 22:34N 47°33' W 122°32'0 0.0
2014-Aug-24 21:34N 47°33' W 122°32'0 0.1
2014-Aug-24 20:34N 47°33' W 122°31'0 0.0
2014-Aug-24 19:34N 47°33' W 122°31'0 0.1
2014-Aug-24 18:34N 47°33' W 122°31'2 2.0
2014-Aug-24 17:34N 47°34' W 122°28'1211.8
2014-Aug-24 16:34N 47°23' W 122°21'7 6.9
2014-Aug-24 15:33N 47°17' W 122°25'1 1.2
2014-Aug-24 14:32N 47°16' W 122°23'0 0.0
2014-Aug-24 13:32N 47°16' W 122°23'0 0.0
2014-Aug-24 12:32N 47°16' W 122°23'0 0.0
2014-Aug-24 11:29N 47°16' W 122°23'0 0.0
2014-Aug-24 10:32N 47°16' W 122°23'0 0.0
2014-Aug-24 09:32N 47°16' W 122°23'0 0.0
2014-Aug-24 08:32N 47°16' W 122°23'0 0.0
2014-Aug-24 07:32N 47°16' W 122°23'0 0.0
2014-Aug-24 06:32N 47°16' W 122°23'0 0.0
2014-Aug-24 05:32N 47°16' W 122°24'0 0.0
2014-Aug-24 04:32N 47°16' W 122°23'0 0.0
2014-Aug-24 03:32N 47°16' W 122°23'0 0.0
2014-Aug-24 02:32N 47°16' W 122°23'0 0.0
2014-Aug-24 01:32N 47°16' W 122°23'0 0.0
2014-Aug-24 00:32N 47°16' W 122°23'0 0.0
2014-Aug-23 23:32N 47°16' W 122°23'0 0.0
2014-Aug-23 22:32N 47°16' W 122°23'0 0.0
2014-Aug-23 21:32N 47°16' W 122°23'0 0.0
2014-Aug-23 20:29N 47°16' W 122°23'0 0.0
2014-Aug-23 19:29N 47°16' W 122°23'5 0.3
2014-Aug-23 03:31N 47°20' W 122°28'0 0.1
2014-Aug-23 02:31N 47°20' W 122°28'1 0.6
2014-Aug-23 01:33N 47°20' W 122°28'1110.8
2014-Aug-23 00:33N 47°31' W 122°26'1616.4
2014-Aug-22 23:34N 47°47' W 122°27'1919.2
2014-Aug-22 22:34N 48°04' W 122°39'2020.2
2014-Aug-22 21:33N 48°12' W 123°07'1313.3
2014-Aug-22 20:34N 48°11' W 123°27'6 6.1
2014-Aug-22 19:34N 48°17' W 123°29'7 7.2
2014-Aug-22 18:34N 48°23' W 123°23'1212.3
2014-Aug-22 17:34N 48°34' W 123°13'1817.9
2014-Aug-22 16:33N 48°50' W 123°02'1211.7
2014-Aug-22 15:33N 49°01' W 123°09'0 0.4
2014-Aug-22 14:33N 49°01' W 123°09'0 0.0
2014-Aug-22 13:33N 49°01' W 123°09'0 0.0
2014-Aug-22 12:33N 49°01' W 123°09'0 0.0
2014-Aug-22 11:33N 49°01' W 123°09'0 0.0
2014-Aug-22 10:33N 49°01' W 123°09'0 0.0
2014-Aug-22 09:33N 49°01' W 123°09'0 0.0
2014-Aug-22 08:33N 49°01' W 123°09'0 0.0
2014-Aug-22 07:33N 49°01' W 123°09'0 0.0
2014-Aug-22 06:33N 49°01' W 123°09'0 0.0
2014-Aug-22 05:33N 49°01' W 123°09'0 0.0
2014-Aug-22 04:33N 49°01' W 123°09'0 0.0
2014-Aug-22 03:33N 49°01' W 123°09'0 0.0
2014-Aug-22 02:33N 49°01' W 123°09'0 0.0
2014-Aug-22 01:33N 49°01' W 123°09'0 0.0
2014-Aug-22 00:33N 49°01' W 123°09'0 0.0
2014-Aug-21 23:33N 49°01' W 123°09'0 0.0
2014-Aug-21 22:33N 49°01' W 123°09'0 0.0
2014-Aug-21 21:33N 49°01' W 123°09'0 0.0
2014-Aug-21 20:33N 49°01' W 123°09'0 0.0
2014-Aug-21 19:33N 49°01' W 123°09'0 0.0
2014-Aug-21 18:33N 49°01' W 123°09'0 0.0
2014-Aug-21 17:33N 49°01' W 123°09'0 0.0
2014-Aug-21 16:34N 49°01' W 123°09'0 0.0
2014-Aug-21 15:34N 49°01' W 123°09'0 0.0
2014-Aug-21 14:33N 49°01' W 123°09'0 0.0
2014-Aug-21 13:33N 49°01' W 123°09'0 0.0
2014-Aug-21 12:33N 49°01' W 123°09'0 0.0
2014-Aug-21 11:33N 49°01' W 123°09'0 0.0
2014-Aug-21 10:33N 49°01' W 123°09'0 0.0
2014-Aug-21 09:33N 49°01' W 123°09'0 0.0
2014-Aug-21 08:33N 49°01' W 123°09'0 0.0
2014-Aug-21 07:33N 49°01' W 123°09'0 0.0
2014-Aug-21 06:33N 49°01' W 123°09'0 0.0
2014-Aug-21 05:33N 49°01' W 123°09'0 0.0
2014-Aug-21 04:33N 49°01' W 123°09'0 0.0
2014-Aug-21 03:33N 49°01' W 123°09'0 0.0
2014-Aug-21 02:33N 49°01' W 123°09'0 0.0
2014-Aug-21 01:33N 49°01' W 123°09'0 0.0
2014-Aug-21 00:33N 49°01' W 123°09'0 0.0
2014-Aug-20 23:33N 49°01' W 123°09'0 0.0
2014-Aug-20 22:33N 49°01' W 123°09'0 0.0
2014-Aug-20 21:33N 49°01' W 123°09'0 0.0
2014-Aug-20 20:33N 49°01' W 123°09'0 0.0
2014-Aug-20 19:33N 49°01' W 123°09'0 0.0
2014-Aug-20 18:33N 49°01' W 123°09'0 0.0
2014-Aug-20 17:33N 49°01' W 123°09'0 0.0
2014-Aug-20 16:33N 49°01' W 123°09'0 0.0
2014-Aug-20 15:33N 49°01' W 123°09'0 0.0
2014-Aug-20 14:33N 49°01' W 123°09'0 0.0
2014-Aug-20 13:33N 49°01' W 123°09'0 0.0
2014-Aug-20 12:33N 49°01' W 123°09'0 0.0
2014-Aug-20 11:33N 49°01' W 123°09'0 0.0
2014-Aug-20 10:33N 49°01' W 123°09'0 0.0
2014-Aug-20 09:33N 49°01' W 123°09'0 0.0
2014-Aug-20 08:33N 49°01' W 123°09'0 0.0
2014-Aug-20 07:33N 49°01' W 123°09'0 0.0
2014-Aug-20 06:33N 49°01' W 123°09'0 0.0
2014-Aug-20 05:33N 49°01' W 123°09'0 0.0
2014-Aug-20 04:34N 49°01' W 123°09'0 0.0
2014-Aug-20 03:33N 49°01' W 123°09'0 0.0
2014-Aug-20 02:33N 49°01' W 123°09'0 0.0
2014-Aug-20 01:33N 49°01' W 123°09'0 0.0
2014-Aug-20 00:33N 49°01' W 123°09'0 0.0
2014-Aug-19 23:33N 49°01' W 123°09'0 0.0
2014-Aug-19 22:33N 49°01' W 123°09'0 0.0
2014-Aug-19 21:33N 49°01' W 123°09'0 0.0
2014-Aug-19 20:33N 49°01' W 123°09'0 0.0
2014-Aug-19 19:33N 49°01' W 123°09'0 0.0
2014-Aug-19 18:33N 49°01' W 123°09'0 0.0
2014-Aug-19 17:33N 49°01' W 123°09'0 0.0
2014-Aug-19 16:33N 49°01' W 123°09'0 0.0
2014-Aug-19 15:33N 49°01' W 123°09'0 0.0
2014-Aug-19 14:33N 49°01' W 123°09'0 0.0
2014-Aug-19 13:33N 49°01' W 123°09'0 0.0
2014-Aug-19 12:33N 49°01' W 123°09'0 0.0
2014-Aug-19 11:33N 49°01' W 123°09'0 0.0
2014-Aug-19 10:33N 49°01' W 123°09'0 0.0
2014-Aug-19 09:33N 49°01' W 123°09'0 0.0
2014-Aug-19 08:33N 49°01' W 123°09'0 0.0
2014-Aug-19 07:33N 49°01' W 123°09'0 0.0
2014-Aug-19 06:33N 49°01' W 123°09'0 0.0
2014-Aug-19 05:33N 49°01' W 123°09'0 0.0
2014-Aug-19 04:33N 49°01' W 123°09'0 0.0
2014-Aug-19 03:33N 49°01' W 123°09'0 0.0
2014-Aug-19 02:33N 49°01' W 123°09'0 0.0
2014-Aug-19 01:33N 49°01' W 123°09'0 0.0
2014-Aug-19 00:33N 49°01' W 123°09'0 0.0
2014-Aug-18 23:33N 49°01' W 123°09'0 0.0
2014-Aug-18 22:33N 49°01' W 123°09'0 0.0
2014-Aug-18 21:33N 49°01' W 123°09'0 0.0
2014-Aug-18 20:33N 49°01' W 123°09'0 0.0
2014-Aug-18 19:33N 49°01' W 123°09'0 0.0
2014-Aug-18 18:33N 49°01' W 123°09'0 0.0
2014-Aug-18 17:33N 49°01' W 123°09'0 0.0
2014-Aug-18 16:33N 49°01' W 123°09'0 0.0
2014-Aug-18 15:33N 49°01' W 123°09'0 0.0
2014-Aug-18 14:33N 49°01' W 123°09'0 0.0
2014-Aug-18 13:33N 49°01' W 123°09'0 0.0
2014-Aug-18 12:33N 49°01' W 123°09'0 0.0
2014-Aug-18 11:33N 49°01' W 123°09'0 0.0
2014-Aug-18 10:33N 49°01' W 123°09'0 0.0
2014-Aug-18 09:33N 49°01' W 123°09'0 0.0
2014-Aug-18 08:33N 49°01' W 123°09'0 0.0
2014-Aug-18 07:33N 49°01' W 123°09'0 0.0
2014-Aug-18 06:33N 49°01' W 123°09'0 0.0
2014-Aug-18 05:33N 49°01' W 123°09'0 0.0
2014-Aug-18 04:33N 49°01' W 123°09'0 0.0
2014-Aug-18 03:33N 49°01' W 123°09'0 0.0
2014-Aug-18 02:33N 49°01' W 123°09'0 0.0
2014-Aug-18 01:33N 49°01' W 123°09'0 0.0
2014-Aug-18 00:33N 49°01' W 123°09'0 0.0
2014-Aug-17 18:33N 49°01' W 123°09'0 0.0
2014-Aug-17 17:33N 49°01' W 123°09'0 0.0
2014-Aug-17 16:33N 49°01' W 123°09'0 0.0
2014-Aug-17 15:33N 49°01' W 123°09'0 0.0
2014-Aug-17 14:33N 49°01' W 123°09'0 0.0
2014-Aug-17 13:33N 49°01' W 123°09'5 4.7
2014-Aug-17 12:33N 48°57' W 123°08'1515.0
2014-Aug-17 11:33N 48°42' W 123°14'1818.2
2014-Aug-17 10:34N 48°24' W 123°12'1313.1
2014-Aug-17 09:33N 48°15' W 123°27'1413.9
2014-Aug-17 08:33N 48°13' W 123°47'1414.1
2014-Aug-17 07:34N 48°17' W 124°08'  

Dump ship's entire track history